sensor_id;sensor_type;location;lat;lon;timestamp;P1;durP1;ratioP1;P2;durP2;ratioP2
14007;SDS011;61651;45.508;12.232;2023-10-08T00:00:40;18.48;;;16.45;;
14007;SDS011;61651;45.508;12.232;2023-10-08T00:03:48;20.27;;;18.23;;
14007;SDS011;61651;45.508;12.232;2023-10-08T00:06:51;20.25;;;18.15;;
14007;SDS011;61651;45.508;12.232;2023-10-08T00:09:53;19.98;;;16.27;;
14007;SDS011;61651;45.508;12.232;2023-10-08T00:12:55;19.83;;;17.67;;
14007;SDS011;61651;45.508;12.232;2023-10-08T00:15:58;19.65;;;17.60;;
14007;SDS011;61651;45.508;12.232;2023-10-08T00:19:00;18.67;;;16.75;;
14007;SDS011;61651;45.508;12.232;2023-10-08T00:22:08;24.17;;;19.15;;
14007;SDS011;61651;45.508;12.232;2023-10-08T00:25:13;19.40;;;16.98;;
14007;SDS011;61651;45.508;12.232;2023-10-08T00:28:16;19.17;;;17.20;;
14007;SDS011;61651;45.508;12.232;2023-10-08T00:31:20;20.33;;;18.08;;
14007;SDS011;61651;45.508;12.232;2023-10-08T00:34:26;20.10;;;18.00;;
14007;SDS011;61651;45.508;12.232;2023-10-08T00:37:28;19.13;;;17.23;;
14007;SDS011;61651;45.508;12.232;2023-10-08T00:40:35;19.70;;;17.05;;
14007;SDS011;61651;45.508;12.232;2023-10-08T00:43:38;21.15;;;17.13;;
14007;SDS011;61651;45.508;12.232;2023-10-08T00:46:42;18.83;;;16.83;;
14007;SDS011;61651;45.508;12.232;2023-10-08T00:49:48;17.95;;;16.10;;
14007;SDS011;61651;45.508;12.232;2023-10-08T00:53:03;19.40;;;17.40;;
14007;SDS011;61651;45.508;12.232;2023-10-08T00:56:17;25.17;;;20.95;;
14007;SDS011;61651;45.508;12.232;2023-10-08T00:59:20;23.75;;;21.35;;
14007;SDS011;61651;45.508;12.232;2023-10-08T01:02:26;21.58;;;19.35;;
14007;SDS011;61651;45.508;12.232;2023-10-08T01:05:29;23.90;;;21.45;;
14007;SDS011;61651;45.508;12.232;2023-10-08T01:08:42;24.17;;;21.80;;
14007;SDS011;61651;45.508;12.232;2023-10-08T01:15:13;23.58;;;21.15;;
14007;SDS011;61651;45.508;12.232;2023-10-08T01:18:24;22.42;;;19.95;;
14007;SDS011;61651;45.508;12.232;2023-10-08T01:21:32;24.83;;;22.33;;
14007;SDS011;61651;45.508;12.232;2023-10-08T01:24:41;22.85;;;20.38;;
14007;SDS011;61651;45.508;12.232;2023-10-08T01:27:43;26.17;;;23.45;;
14007;SDS011;61651;45.508;12.232;2023-10-08T01:30:46;25.67;;;23.02;;
14007;SDS011;61651;45.508;12.232;2023-10-08T01:33:53;26.55;;;23.73;;
14007;SDS011;61651;45.508;12.232;2023-10-08T01:36:57;24.27;;;21.80;;
14007;SDS011;61651;45.508;12.232;2023-10-08T01:40:05;26.42;;;23.83;;
14007;SDS011;61651;45.508;12.232;2023-10-08T01:43:09;27.15;;;24.17;;
14007;SDS011;61651;45.508;12.232;2023-10-08T01:46:13;26.77;;;23.90;;
14007;SDS011;61651;45.508;12.232;2023-10-08T01:49:16;27.17;;;24.50;;
14007;SDS011;61651;45.508;12.232;2023-10-08T01:52:22;25.70;;;23.00;;
14007;SDS011;61651;45.508;12.232;2023-10-08T01:55:25;24.48;;;22.02;;
14007;SDS011;61651;45.508;12.232;2023-10-08T01:58:30;25.63;;;22.90;;
14007;SDS011;61651;45.508;12.232;2023-10-08T02:01:33;26.23;;;23.52;;
14007;SDS011;61651;45.508;12.232;2023-10-08T02:04:36;25.60;;;22.92;;
14007;SDS011;61651;45.508;12.232;2023-10-08T02:07:38;25.58;;;22.92;;
14007;SDS011;61651;45.508;12.232;2023-10-08T02:10:42;25.38;;;22.77;;
14007;SDS011;61651;45.508;12.232;2023-10-08T02:13:47;24.65;;;22.10;;
14007;SDS011;61651;45.508;12.232;2023-10-08T02:16:50;24.95;;;22.42;;
14007;SDS011;61651;45.508;12.232;2023-10-08T02:19:56;24.05;;;21.48;;
14007;SDS011;61651;45.508;12.232;2023-10-08T02:22:58;23.60;;;21.17;;
14007;SDS011;61651;45.508;12.232;2023-10-08T02:26:02;24.13;;;21.60;;
14007;SDS011;61651;45.508;12.232;2023-10-08T02:29:04;23.10;;;20.73;;
14007;SDS011;61651;45.508;12.232;2023-10-08T02:32:10;24.88;;;22.27;;
14007;SDS011;61651;45.508;12.232;2023-10-08T02:35:12;25.73;;;22.92;;
14007;SDS011;61651;45.508;12.232;2023-10-08T02:38:16;25.77;;;22.63;;
14007;SDS011;61651;45.508;12.232;2023-10-08T02:41:22;23.23;;;20.95;;
14007;SDS011;61651;45.508;12.232;2023-10-08T02:44:25;25.92;;;23.27;;
14007;SDS011;61651;45.508;12.232;2023-10-08T02:47:28;24.85;;;22.35;;
14007;SDS011;61651;45.508;12.232;2023-10-08T02:50:32;28.45;;;25.27;;
14007;SDS011;61651;45.508;12.232;2023-10-08T02:53:34;24.00;;;21.50;;
14007;SDS011;61651;45.508;12.232;2023-10-08T02:56:37;28.95;;;25.60;;
14007;SDS011;61651;45.508;12.232;2023-10-08T02:59:39;30.58;;;25.98;;
14007;SDS011;61651;45.508;12.232;2023-10-08T03:02:42;27.50;;;24.58;;
14007;SDS011;61651;45.508;12.232;2023-10-08T03:05:47;26.63;;;23.95;;
14007;SDS011;61651;45.508;12.232;2023-10-08T03:08:50;25.63;;;22.92;;
14007;SDS011;61651;45.508;12.232;2023-10-08T03:11:54;27.38;;;24.45;;
14007;SDS011;61651;45.508;12.232;2023-10-08T03:14:58;27.60;;;24.75;;
14007;SDS011;61651;45.508;12.232;2023-10-08T03:18:12;26.05;;;23.33;;
14007;SDS011;61651;45.508;12.232;2023-10-08T03:21:15;24.33;;;21.52;;
14007;SDS011;61651;45.508;12.232;2023-10-08T03:24:21;26.40;;;23.70;;
14007;SDS011;61651;45.508;12.232;2023-10-08T03:27:40;25.40;;;22.75;;
14007;SDS011;61651;45.508;12.232;2023-10-08T03:30:42;26.67;;;23.98;;
14007;SDS011;61651;45.508;12.232;2023-10-08T03:33:50;26.15;;;23.38;;
14007;SDS011;61651;45.508;12.232;2023-10-08T03:36:52;28.08;;;25.10;;
14007;SDS011;61651;45.508;12.232;2023-10-08T03:40:05;29.65;;;26.80;;
14007;SDS011;61651;45.508;12.232;2023-10-08T03:43:25;30.98;;;27.63;;
14007;SDS011;61651;45.508;12.232;2023-10-08T03:46:42;28.95;;;25.98;;
14007;SDS011;61651;45.508;12.232;2023-10-08T03:49:47;31.15;;;27.95;;
14007;SDS011;61651;45.508;12.232;2023-10-08T03:52:50;31.85;;;28.58;;
14007;SDS011;61651;45.508;12.232;2023-10-08T03:55:55;31.50;;;28.33;;
14007;SDS011;61651;45.508;12.232;2023-10-08T03:59:02;31.58;;;28.25;;
14007;SDS011;61651;45.508;12.232;2023-10-08T04:02:12;33.17;;;29.80;;
14007;SDS011;61651;45.508;12.232;2023-10-08T04:05:16;32.80;;;29.40;;
14007;SDS011;61651;45.508;12.232;2023-10-08T04:08:24;30.70;;;27.30;;
14007;SDS011;61651;45.508;12.232;2023-10-08T04:11:42;31.23;;;27.95;;
14007;SDS011;61651;45.508;12.232;2023-10-08T04:14:56;30.60;;;27.65;;
14007;SDS011;61651;45.508;12.232;2023-10-08T04:17:58;31.90;;;28.80;;
14007;SDS011;61651;45.508;12.232;2023-10-08T04:21:03;31.73;;;28.30;;
14007;SDS011;61651;45.508;12.232;2023-10-08T04:24:12;30.45;;;26.80;;
14007;SDS011;61651;45.508;12.232;2023-10-08T04:27:14;30.75;;;27.48;;
14007;SDS011;61651;45.508;12.232;2023-10-08T04:30:20;32.13;;;28.67;;
14007;SDS011;61651;45.508;12.232;2023-10-08T04:33:22;30.38;;;27.13;;
14007;SDS011;61651;45.508;12.232;2023-10-08T04:36:24;32.67;;;29.27;;
14007;SDS011;61651;45.508;12.232;2023-10-08T04:39:27;30.80;;;27.70;;
14007;SDS011;61651;45.508;12.232;2023-10-08T04:42:33;35.63;;;29.50;;
14007;SDS011;61651;45.508;12.232;2023-10-08T04:45:39;31.77;;;28.52;;
14007;SDS011;61651;45.508;12.232;2023-10-08T04:48:41;29.67;;;26.67;;
14007;SDS011;61651;45.508;12.232;2023-10-08T04:51:43;31.98;;;28.67;;
14007;SDS011;61651;45.508;12.232;2023-10-08T04:54:46;33.30;;;29.25;;
14007;SDS011;61651;45.508;12.232;2023-10-08T04:57:54;32.88;;;29.48;;
14007;SDS011;61651;45.508;12.232;2023-10-08T05:00:57;33.00;;;29.70;;
14007;SDS011;61651;45.508;12.232;2023-10-08T05:04:17;35.17;;;31.30;;
14007;SDS011;61651;45.508;12.232;2023-10-08T05:07:26;32.22;;;28.90;;
14007;SDS011;61651;45.508;12.232;2023-10-08T05:10:43;31.33;;;27.40;;
14007;SDS011;61651;45.508;12.232;2023-10-08T05:14:24;33.97;;;29.58;;
14007;SDS011;61651;45.508;12.232;2023-10-08T05:17:36;32.83;;;29.35;;
14007;SDS011;61651;45.508;12.232;2023-10-08T05:20:56;31.35;;;28.15;;
14007;SDS011;61651;45.508;12.232;2023-10-08T05:24:04;30.40;;;27.20;;
14007;SDS011;61651;45.508;12.232;2023-10-08T05:27:15;32.45;;;29.08;;
14007;SDS011;61651;45.508;12.232;2023-10-08T05:30:38;30.38;;;27.38;;
14007;SDS011;61651;45.508;12.232;2023-10-08T05:33:43;30.27;;;27.17;;
14007;SDS011;61651;45.508;12.232;2023-10-08T05:37:00;29.88;;;26.17;;
14007;SDS011;61651;45.508;12.232;2023-10-08T05:40:32;29.33;;;26.25;;
14007;SDS011;61651;45.508;12.232;2023-10-08T05:44:05;30.67;;;26.77;;
14007;SDS011;61651;45.508;12.232;2023-10-08T05:47:24;29.90;;;26.70;;
14007;SDS011;61651;45.508;12.232;2023-10-08T05:50:40;29.58;;;26.23;;
14007;SDS011;61651;45.508;12.232;2023-10-08T05:53:55;27.67;;;24.77;;
14007;SDS011;61651;45.508;12.232;2023-10-08T05:56:57;28.77;;;25.65;;
14007;SDS011;61651;45.508;12.232;2023-10-08T06:00:14;28.55;;;25.67;;
14007;SDS011;61651;45.508;12.232;2023-10-08T06:03:45;26.80;;;24.15;;
14007;SDS011;61651;45.508;12.232;2023-10-08T06:07:01;24.60;;;22.20;;
14007;SDS011;61651;45.508;12.232;2023-10-08T06:10:12;25.83;;;23.13;;
14007;SDS011;61651;45.508;12.232;2023-10-08T06:13:34;23.83;;;21.42;;
14007;SDS011;61651;45.508;12.232;2023-10-08T06:16:45;25.38;;;22.63;;
14007;SDS011;61651;45.508;12.232;2023-10-08T06:20:02;27.80;;;23.63;;
14007;SDS011;61651;45.508;12.232;2023-10-08T06:23:12;23.02;;;20.63;;
14007;SDS011;61651;45.508;12.232;2023-10-08T06:26:18;23.35;;;20.38;;
14007;SDS011;61651;45.508;12.232;2023-10-08T06:29:21;21.85;;;19.67;;
14007;SDS011;61651;45.508;12.232;2023-10-08T06:32:29;21.25;;;19.10;;
14007;SDS011;61651;45.508;12.232;2023-10-08T06:35:31;20.58;;;18.58;;
14007;SDS011;61651;45.508;12.232;2023-10-08T06:38:34;21.80;;;18.63;;
14007;SDS011;61651;45.508;12.232;2023-10-08T06:41:38;22.48;;;20.15;;
14007;SDS011;61651;45.508;12.232;2023-10-08T06:44:42;21.50;;;19.30;;
14007;SDS011;61651;45.508;12.232;2023-10-08T06:47:46;21.52;;;19.33;;
14007;SDS011;61651;45.508;12.232;2023-10-08T06:50:49;22.33;;;19.98;;
14007;SDS011;61651;45.508;12.232;2023-10-08T06:53:58;21.85;;;19.55;;
14007;SDS011;61651;45.508;12.232;2023-10-08T06:57:03;22.67;;;19.88;;
14007;SDS011;61651;45.508;12.232;2023-10-08T07:00:07;22.50;;;19.45;;
14007;SDS011;61651;45.508;12.232;2023-10-08T07:03:12;23.92;;;21.42;;
14007;SDS011;61651;45.508;12.232;2023-10-08T07:06:16;24.77;;;21.25;;
14007;SDS011;61651;45.508;12.232;2023-10-08T07:09:27;22.13;;;19.80;;
14007;SDS011;61651;45.508;12.232;2023-10-08T07:12:30;23.80;;;20.73;;
14007;SDS011;61651;45.508;12.232;2023-10-08T07:15:35;24.70;;;21.00;;
14007;SDS011;61651;45.508;12.232;2023-10-08T07:18:40;23.75;;;21.35;;
14007;SDS011;61651;45.508;12.232;2023-10-08T07:21:50;23.75;;;21.25;;
14007;SDS011;61651;45.508;12.232;2023-10-08T07:24:56;25.40;;;20.30;;
14007;SDS011;61651;45.508;12.232;2023-10-08T07:27:59;24.10;;;21.60;;
14007;SDS011;61651;45.508;12.232;2023-10-08T07:31:12;22.27;;;20.08;;
14007;SDS011;61651;45.508;12.232;2023-10-08T07:34:16;23.50;;;21.00;;
14007;SDS011;61651;45.508;12.232;2023-10-08T07:37:18;23.73;;;21.45;;
14007;SDS011;61651;45.508;12.232;2023-10-08T07:40:22;21.50;;;19.20;;
14007;SDS011;61651;45.508;12.232;2023-10-08T07:43:29;22.45;;;19.55;;
14007;SDS011;61651;45.508;12.232;2023-10-08T07:46:32;24.80;;;20.25;;
14007;SDS011;61651;45.508;12.232;2023-10-08T07:49:34;24.17;;;21.25;;
14007;SDS011;61651;45.508;12.232;2023-10-08T07:52:37;23.95;;;21.45;;
14007;SDS011;61651;45.508;12.232;2023-10-08T07:55:44;22.98;;;20.77;;
14007;SDS011;61651;45.508;12.232;2023-10-08T07:58:47;24.90;;;22.38;;
14007;SDS011;61651;45.508;12.232;2023-10-08T08:01:49;25.08;;;22.58;;
14007;SDS011;61651;45.508;12.232;2023-10-08T08:04:52;24.83;;;20.88;;
14007;SDS011;61651;45.508;12.232;2023-10-08T08:07:55;27.88;;;22.73;;
14007;SDS011;61651;45.508;12.232;2023-10-08T08:11:01;24.73;;;22.13;;
14007;SDS011;61651;45.508;12.232;2023-10-08T08:14:06;26.77;;;22.92;;
14007;SDS011;61651;45.508;12.232;2023-10-08T08:17:09;24.67;;;22.27;;
14007;SDS011;61651;45.508;12.232;2023-10-08T08:20:14;25.83;;;23.15;;
14007;SDS011;61651;45.508;12.232;2023-10-08T08:23:22;26.02;;;23.23;;
14007;SDS011;61651;45.508;12.232;2023-10-08T08:26:26;27.08;;;23.33;;
14007;SDS011;61651;45.508;12.232;2023-10-08T08:29:28;25.35;;;22.02;;
14007;SDS011;61651;45.508;12.232;2023-10-08T08:32:33;25.48;;;22.45;;
14007;SDS011;61651;45.508;12.232;2023-10-08T08:35:35;28.65;;;23.42;;
14007;SDS011;61651;45.508;12.232;2023-10-08T08:38:37;25.27;;;21.13;;
14007;SDS011;61651;45.508;12.232;2023-10-08T08:41:41;24.17;;;20.65;;
14007;SDS011;61651;45.508;12.232;2023-10-08T08:44:44;23.27;;;20.75;;
14007;SDS011;61651;45.508;12.232;2023-10-08T08:47:47;23.10;;;20.70;;
14007;SDS011;61651;45.508;12.232;2023-10-08T08:50:49;26.05;;;22.45;;
14007;SDS011;61651;45.508;12.232;2023-10-08T08:53:51;24.90;;;21.08;;
14007;SDS011;61651;45.508;12.232;2023-10-08T08:56:55;24.33;;;20.35;;
14007;SDS011;61651;45.508;12.232;2023-10-08T08:59:57;25.05;;;22.45;;
14007;SDS011;61651;45.508;12.232;2023-10-08T09:03:00;23.23;;;19.92;;
14007;SDS011;61651;45.508;12.232;2023-10-08T09:06:05;32.22;;;19.70;;
14007;SDS011;61651;45.508;12.232;2023-10-08T09:09:07;34.70;;;23.73;;
14007;SDS011;61651;45.508;12.232;2023-10-08T09:12:23;31.65;;;22.95;;
14007;SDS011;61651;45.508;12.232;2023-10-08T09:15:25;137.80;;;29.02;;
14007;SDS011;61651;45.508;12.232;2023-10-08T09:18:28;19.92;;;17.83;;
14007;SDS011;61651;45.508;12.232;2023-10-08T09:21:32;26.55;;;18.92;;
14007;SDS011;61651;45.508;12.232;2023-10-08T09:24:35;20.30;;;17.75;;
14007;SDS011;61651;45.508;12.232;2023-10-08T09:27:40;21.27;;;18.98;;
14007;SDS011;61651;45.508;12.232;2023-10-08T09:30:46;24.02;;;20.60;;
14007;SDS011;61651;45.508;12.232;2023-10-08T09:33:53;21.85;;;19.75;;
14007;SDS011;61651;45.508;12.232;2023-10-08T09:36:56;22.05;;;19.75;;
14007;SDS011;61651;45.508;12.232;2023-10-08T09:40:00;21.48;;;18.08;;
14007;SDS011;61651;45.508;12.232;2023-10-08T09:43:09;23.65;;;21.15;;
14007;SDS011;61651;45.508;12.232;2023-10-08T09:46:18;24.65;;;20.65;;
14007;SDS011;61651;45.508;12.232;2023-10-08T09:49:31;22.52;;;19.65;;
14007;SDS011;61651;45.508;12.232;2023-10-08T09:52:35;18.98;;;16.95;;
14007;SDS011;61651;45.508;12.232;2023-10-08T09:55:41;20.40;;;18.17;;
14007;SDS011;61651;45.508;12.232;2023-10-08T09:58:51;22.45;;;19.95;;
14007;SDS011;61651;45.508;12.232;2023-10-08T10:01:54;22.90;;;19.50;;
14007;SDS011;61651;45.508;12.232;2023-10-08T10:04:59;21.30;;;18.13;;
14007;SDS011;61651;45.508;12.232;2023-10-08T10:08:02;22.88;;;18.00;;
14007;SDS011;61651;45.508;12.232;2023-10-08T10:11:05;21.02;;;18.92;;
14007;SDS011;61651;45.508;12.232;2023-10-08T10:14:10;20.73;;;18.27;;
14007;SDS011;61651;45.508;12.232;2023-10-08T10:17:13;20.10;;;17.95;;
14007;SDS011;61651;45.508;12.232;2023-10-08T10:20:20;23.77;;;20.35;;
14007;SDS011;61651;45.508;12.232;2023-10-08T10:23:35;24.48;;;22.17;;
14007;SDS011;61651;45.508;12.232;2023-10-08T10:26:39;24.83;;;22.25;;
14007;SDS011;61651;45.508;12.232;2023-10-08T10:29:46;45.97;;;22.20;;
14007;SDS011;61651;45.508;12.232;2023-10-08T10:32:49;24.85;;;22.00;;
14007;SDS011;61651;45.508;12.232;2023-10-08T10:35:53;418.58;;;46.20;;
14007;SDS011;61651;45.508;12.232;2023-10-08T10:38:55;24.10;;;19.60;;
14007;SDS011;61651;45.508;12.232;2023-10-08T10:41:58;24.63;;;22.10;;
14007;SDS011;61651;45.508;12.232;2023-10-08T10:45:05;31.42;;;23.60;;
14007;SDS011;61651;45.508;12.232;2023-10-08T10:48:10;24.15;;;21.55;;
14007;SDS011;61651;45.508;12.232;2023-10-08T10:51:13;22.88;;;19.73;;
14007;SDS011;61651;45.508;12.232;2023-10-08T10:54:17;23.67;;;21.10;;
14007;SDS011;61651;45.508;12.232;2023-10-08T10:57:24;19.33;;;17.35;;
14007;SDS011;61651;45.508;12.232;2023-10-08T11:00:36;26.73;;;21.65;;
14007;SDS011;61651;45.508;12.232;2023-10-08T11:03:48;26.13;;;22.70;;
14007;SDS011;61651;45.508;12.232;2023-10-08T11:06:52;22.13;;;19.30;;
14007;SDS011;61651;45.508;12.232;2023-10-08T11:09:58;22.98;;;20.58;;
14007;SDS011;61651;45.508;12.232;2023-10-08T11:13:00;25.40;;;22.60;;
14007;SDS011;61651;45.508;12.232;2023-10-08T11:16:06;23.58;;;20.75;;
14007;SDS011;61651;45.508;12.232;2023-10-08T11:19:09;21.67;;;18.98;;
14007;SDS011;61651;45.508;12.232;2023-10-08T11:22:16;24.65;;;20.02;;
14007;SDS011;61651;45.508;12.232;2023-10-08T11:25:21;21.42;;;18.05;;
14007;SDS011;61651;45.508;12.232;2023-10-08T11:28:27;20.73;;;18.30;;
14007;SDS011;61651;45.508;12.232;2023-10-08T11:31:31;18.80;;;16.92;;
14007;SDS011;61651;45.508;12.232;2023-10-08T11:34:35;22.17;;;17.95;;
14007;SDS011;61651;45.508;12.232;2023-10-08T11:37:39;24.85;;;15.43;;
14007;SDS011;61651;45.508;12.232;2023-10-08T11:40:48;18.25;;;15.88;;
14007;SDS011;61651;45.508;12.232;2023-10-08T11:43:56;20.40;;;17.00;;
14007;SDS011;61651;45.508;12.232;2023-10-08T11:47:00;21.90;;;17.15;;
14007;SDS011;61651;45.508;12.232;2023-10-08T11:50:11;23.65;;;15.68;;
14007;SDS011;61651;45.508;12.232;2023-10-08T11:53:17;15.88;;;14.30;;
14007;SDS011;61651;45.508;12.232;2023-10-08T11:56:20;18.52;;;14.52;;
14007;SDS011;61651;45.508;12.232;2023-10-08T11:59:23;15.55;;;13.90;;
14007;SDS011;61651;45.508;12.232;2023-10-08T12:02:27;18.38;;;16.45;;
14007;SDS011;61651;45.508;12.232;2023-10-08T12:05:29;19.23;;;15.18;;
14007;SDS011;61651;45.508;12.232;2023-10-08T12:08:32;15.77;;;14.18;;
14007;SDS011;61651;45.508;12.232;2023-10-08T12:11:39;17.75;;;14.02;;
14007;SDS011;61651;45.508;12.232;2023-10-08T12:14:42;22.13;;;13.52;;
14007;SDS011;61651;45.508;12.232;2023-10-08T12:17:48;14.35;;;11.65;;
14007;SDS011;61651;45.508;12.232;2023-10-08T12:21:05;16.42;;;14.75;;
14007;SDS011;61651;45.508;12.232;2023-10-08T12:24:10;15.38;;;12.02;;
14007;SDS011;61651;45.508;12.232;2023-10-08T12:27:12;14.20;;;12.70;;
14007;SDS011;61651;45.508;12.232;2023-10-08T12:30:17;16.77;;;15.02;;
14007;SDS011;61651;45.508;12.232;2023-10-08T12:33:26;12.63;;;11.35;;
14007;SDS011;61651;45.508;12.232;2023-10-08T12:36:30;14.32;;;12.23;;
14007;SDS011;61651;45.508;12.232;2023-10-08T12:39:33;15.40;;;13.20;;
14007;SDS011;61651;45.508;12.232;2023-10-08T12:42:44;12.82;;;10.63;;
14007;SDS011;61651;45.508;12.232;2023-10-08T12:45:48;19.95;;;13.57;;
14007;SDS011;61651;45.508;12.232;2023-10-08T12:48:54;26.52;;;22.90;;
14007;SDS011;61651;45.508;12.232;2023-10-08T12:51:56;28.65;;;23.98;;
14007;SDS011;61651;45.508;12.232;2023-10-08T12:55:02;25.25;;;21.50;;
14007;SDS011;61651;45.508;12.232;2023-10-08T12:58:06;24.80;;;22.15;;
14007;SDS011;61651;45.508;12.232;2023-10-08T13:01:10;39.90;;;25.55;;
14007;SDS011;61651;45.508;12.232;2023-10-08T13:04:15;23.88;;;21.38;;
14007;SDS011;61651;45.508;12.232;2023-10-08T13:07:21;30.65;;;26.30;;
14007;SDS011;61651;45.508;12.232;2023-10-08T13:10:23;30.63;;;27.42;;
14007;SDS011;61651;45.508;12.232;2023-10-08T13:13:26;24.83;;;21.02;;
14007;SDS011;61651;45.508;12.232;2023-10-08T13:16:28;25.67;;;22.90;;
14007;SDS011;61651;45.508;12.232;2023-10-08T13:19:32;26.98;;;21.90;;
14007;SDS011;61651;45.508;12.232;2023-10-08T13:22:34;25.58;;;22.80;;
14007;SDS011;61651;45.508;12.232;2023-10-08T13:25:36;26.90;;;24.10;;
14007;SDS011;61651;45.508;12.232;2023-10-08T13:28:39;29.83;;;25.48;;
14007;SDS011;61651;45.508;12.232;2023-10-08T13:31:41;28.85;;;25.77;;
14007;SDS011;61651;45.508;12.232;2023-10-08T13:34:47;27.10;;;24.23;;
14007;SDS011;61651;45.508;12.232;2023-10-08T13:37:49;23.25;;;20.92;;
14007;SDS011;61651;45.508;12.232;2023-10-08T13:40:52;23.73;;;21.02;;
14007;SDS011;61651;45.508;12.232;2023-10-08T13:44:08;29.90;;;23.65;;
14007;SDS011;61651;45.508;12.232;2023-10-08T13:47:12;26.85;;;24.02;;
14007;SDS011;61651;45.508;12.232;2023-10-08T13:50:18;28.70;;;21.75;;
14007;SDS011;61651;45.508;12.232;2023-10-08T13:53:21;29.55;;;25.58;;
14007;SDS011;61651;45.508;12.232;2023-10-08T13:56:24;31.77;;;28.52;;
14007;SDS011;61651;45.508;12.232;2023-10-08T13:59:27;28.80;;;25.15;;
14007;SDS011;61651;45.508;12.232;2023-10-08T14:02:31;26.60;;;23.05;;
14007;SDS011;61651;45.508;12.232;2023-10-08T14:05:37;30.40;;;22.13;;
14007;SDS011;61651;45.508;12.232;2023-10-08T14:08:40;28.80;;;24.45;;
14007;SDS011;61651;45.508;12.232;2023-10-08T14:11:44;24.38;;;21.77;;
14007;SDS011;61651;45.508;12.232;2023-10-08T14:14:46;30.00;;;21.38;;
14007;SDS011;61651;45.508;12.232;2023-10-08T14:17:49;27.17;;;24.20;;
14007;SDS011;61651;45.508;12.232;2023-10-08T14:20:55;23.98;;;21.48;;
14007;SDS011;61651;45.508;12.232;2023-10-08T14:23:57;30.23;;;23.13;;
14007;SDS011;61651;45.508;12.232;2023-10-08T14:27:03;25.92;;;22.52;;
14007;SDS011;61651;45.508;12.232;2023-10-08T14:30:10;26.25;;;23.00;;
14007;SDS011;61651;45.508;12.232;2023-10-08T14:33:15;26.00;;;22.95;;
14007;SDS011;61651;45.508;12.232;2023-10-08T14:36:25;25.77;;;22.98;;
14007;SDS011;61651;45.508;12.232;2023-10-08T14:39:45;26.42;;;22.08;;
14007;SDS011;61651;45.508;12.232;2023-10-08T14:43:04;25.10;;;22.00;;
14007;SDS011;61651;45.508;12.232;2023-10-08T14:46:11;23.17;;;19.92;;
14007;SDS011;61651;45.508;12.232;2023-10-08T14:49:15;23.40;;;20.95;;
14007;SDS011;61651;45.508;12.232;2023-10-08T14:52:18;22.50;;;20.10;;
14007;SDS011;61651;45.508;12.232;2023-10-08T14:55:20;23.77;;;21.33;;
14007;SDS011;61651;45.508;12.232;2023-10-08T14:58:23;21.33;;;19.23;;
14007;SDS011;61651;45.508;12.232;2023-10-08T15:01:25;21.33;;;17.85;;
14007;SDS011;61651;45.508;12.232;2023-10-08T15:04:28;23.75;;;19.88;;
14007;SDS011;61651;45.508;12.232;2023-10-08T15:07:33;25.75;;;20.70;;
14007;SDS011;61651;45.508;12.232;2023-10-08T15:10:36;23.48;;;21.00;;
14007;SDS011;61651;45.508;12.232;2023-10-08T15:13:38;21.20;;;19.02;;
14007;SDS011;61651;45.508;12.232;2023-10-08T15:16:40;23.17;;;18.55;;
14007;SDS011;61651;45.508;12.232;2023-10-08T15:19:43;23.30;;;18.38;;
14007;SDS011;61651;45.508;12.232;2023-10-08T15:22:52;21.08;;;18.80;;
14007;SDS011;61651;45.508;12.232;2023-10-08T15:25:54;20.15;;;17.80;;
14007;SDS011;61651;45.508;12.232;2023-10-08T15:28:56;19.60;;;17.45;;
14007;SDS011;61651;45.508;12.232;2023-10-08T15:31:58;21.27;;;17.63;;
14007;SDS011;61651;45.508;12.232;2023-10-08T15:35:00;20.08;;;17.98;;
14007;SDS011;61651;45.508;12.232;2023-10-08T15:38:04;22.42;;;18.38;;
14007;SDS011;61651;45.508;12.232;2023-10-08T15:41:06;20.98;;;18.75;;
14007;SDS011;61651;45.508;12.232;2023-10-08T15:44:08;22.27;;;16.88;;
14007;SDS011;61651;45.508;12.232;2023-10-08T15:47:10;23.00;;;16.92;;
14007;SDS011;61651;45.508;12.232;2023-10-08T15:50:12;19.08;;;16.00;;
14007;SDS011;61651;45.508;12.232;2023-10-08T15:53:15;18.60;;;16.27;;
14007;SDS011;61651;45.508;12.232;2023-10-08T15:56:17;21.50;;;14.65;;
14007;SDS011;61651;45.508;12.232;2023-10-08T15:59:19;19.75;;;14.57;;
14007;SDS011;61651;45.508;12.232;2023-10-08T16:02:21;16.30;;;14.40;;
14007;SDS011;61651;45.508;12.232;2023-10-08T16:05:23;17.27;;;14.25;;
14007;SDS011;61651;45.508;12.232;2023-10-08T16:08:26;17.73;;;15.82;;
14007;SDS011;61651;45.508;12.232;2023-10-08T16:11:28;22.40;;;17.67;;
14007;SDS011;61651;45.508;12.232;2023-10-08T16:14:30;19.73;;;17.63;;
14007;SDS011;61651;45.508;12.232;2023-10-08T16:17:32;22.38;;;19.00;;
14007;SDS011;61651;45.508;12.232;2023-10-08T16:20:38;22.60;;;20.20;;
14007;SDS011;61651;45.508;12.232;2023-10-08T16:23:41;26.33;;;20.58;;
14007;SDS011;61651;45.508;12.232;2023-10-08T16:26:43;25.60;;;20.27;;
14007;SDS011;61651;45.508;12.232;2023-10-08T16:29:45;27.48;;;22.23;;
14007;SDS011;61651;45.508;12.232;2023-10-08T16:32:47;24.05;;;21.35;;
14007;SDS011;61651;45.508;12.232;2023-10-08T16:35:51;26.50;;;23.65;;
14007;SDS011;61651;45.508;12.232;2023-10-08T16:38:55;28.75;;;23.20;;
14007;SDS011;61651;45.508;12.232;2023-10-08T16:41:57;30.75;;;23.42;;
14007;SDS011;61651;45.508;12.232;2023-10-08T16:44:59;32.83;;;24.77;;
14007;SDS011;61651;45.508;12.232;2023-10-08T16:48:01;32.15;;;25.27;;
14007;SDS011;61651;45.508;12.232;2023-10-08T16:51:03;30.55;;;24.98;;
14007;SDS011;61651;45.508;12.232;2023-10-08T16:54:07;28.38;;;25.27;;
14007;SDS011;61651;45.508;12.232;2023-10-08T16:57:14;29.40;;;25.58;;
14007;SDS011;61651;45.508;12.232;2023-10-08T17:00:17;33.83;;;25.75;;
14007;SDS011;61651;45.508;12.232;2023-10-08T17:03:19;30.70;;;25.17;;
14007;SDS011;61651;45.508;12.232;2023-10-08T17:06:22;31.90;;;26.05;;
14007;SDS011;61651;45.508;12.232;2023-10-08T17:09:26;30.02;;;26.85;;
14007;SDS011;61651;45.508;12.232;2023-10-08T17:12:28;29.85;;;26.48;;
14007;SDS011;61651;45.508;12.232;2023-10-08T17:15:30;32.85;;;27.75;;
14007;SDS011;61651;45.508;12.232;2023-10-08T17:18:32;32.33;;;27.88;;
14007;SDS011;61651;45.508;12.232;2023-10-08T17:21:34;30.70;;;26.73;;
14007;SDS011;61651;45.508;12.232;2023-10-08T17:24:38;30.60;;;27.27;;
14007;SDS011;61651;45.508;12.232;2023-10-08T17:27:41;31.55;;;28.15;;
14007;SDS011;61651;45.508;12.232;2023-10-08T17:30:46;31.63;;;27.88;;
14007;SDS011;61651;45.508;12.232;2023-10-08T17:33:48;31.60;;;28.33;;
14007;SDS011;61651;45.508;12.232;2023-10-08T17:36:50;32.75;;;29.08;;
14007;SDS011;61651;45.508;12.232;2023-10-08T17:39:55;35.40;;;29.88;;
14007;SDS011;61651;45.508;12.232;2023-10-08T17:42:58;33.70;;;29.98;;
14007;SDS011;61651;45.508;12.232;2023-10-08T17:46:00;31.98;;;28.60;;
14007;SDS011;61651;45.508;12.232;2023-10-08T17:49:04;34.47;;;30.73;;
14007;SDS011;61651;45.508;12.232;2023-10-08T17:52:06;35.15;;;31.38;;